KBDE/BDE METAR and TAF weather

Enter ICAO airport designator
Station Type Date Time Source
KBDE METAR 2021/02/25 15:53 UTC NOAA

KBDE 251553Z AUTO 24008G17KT 10SM OVC010 M06/M08 A3008 RMK AO2 SLP206 T10561078


Station Type Date Time Source
KBDE Decoded METAR 2021/02/25 15:53 UTC NOAA

BAUDETTE INTERNATIONAL AIRPORT, MN, United States (KBDE) 48-44N 94-37W 329M
Feb 25, 2021 - 10:53 AM EST / 2021.02.25 1553 UTC
Wind: from the WSW (240 degrees) at 9 MPH (8 KT) gusting to 20 MPH (17 KT):0
Visibility: 10 mile(s):0
Sky conditions: overcast
Temperature: 21.9 F (-5.6 C)
Windchill: 12 F (-11 C):1
Dew Point: 18.0 F (-7.8 C)
Relative Humidity: 84%
Pressure (altimeter): 30.08 in. Hg (1018 hPa)
ob: KBDE 251553Z AUTO 24008G17KT 10SM OVC010 M06/M08 A3008 RMK AO2 SLP206 T10561078
cycle: 16

Station Type Date Time Source
KBDE TAF UTC NOAA

Error!

Example: see airport list